createdAt,value
2023-05-18T00:00:34.943Z,6.20
2023-05-18T00:05:39.129Z,6.13
2023-05-18T00:10:43.284Z,5.97
2023-05-18T00:15:47.589Z,5.85
2023-05-18T00:20:51.597Z,5.73
2023-05-18T00:25:55.793Z,5.68
2023-05-18T00:30:59.980Z,5.53
2023-05-18T00:36:04.107Z,5.56
2023-05-18T00:41:08.300Z,5.40
2023-05-18T00:46:12.484Z,5.31
2023-05-18T00:51:16.611Z,5.18
2023-05-18T00:56:20.765Z,5.12
2023-05-18T01:01:24.975Z,5.02
2023-05-18T01:06:29.143Z,4.92
2023-05-18T01:11:33.253Z,4.81
2023-05-18T01:16:37.492Z,4.74
2023-05-18T01:21:41.569Z,4.65
2023-05-18T01:26:45.751Z,4.58
2023-05-18T01:31:49.888Z,4.49
2023-05-18T01:36:54.050Z,4.44
2023-05-18T01:41:58.258Z,4.37
2023-05-18T01:47:02.417Z,4.31
2023-05-18T01:52:06.553Z,4.23
2023-05-18T01:57:10.753Z,4.18
2023-05-18T02:02:15.025Z,4.12
2023-05-18T02:07:19.040Z,4.11
2023-05-18T02:12:23.249Z,4.12
2023-05-18T02:17:27.378Z,4.14
2023-05-18T02:22:31.520Z,4.11
2023-05-18T02:27:35.690Z,4.09
2023-05-18T02:32:39.942Z,4.10
2023-05-18T02:37:44.081Z,4.02
2023-05-18T02:42:48.176Z,3.94
2023-05-18T02:47:52.398Z,3.90
2023-05-18T02:52:56.498Z,3.87
2023-05-18T02:58:00.708Z,3.85
2023-05-18T03:03:04.995Z,3.84
2023-05-18T03:08:09.033Z,3.78
2023-05-18T03:13:13.173Z,3.73
2023-05-18T03:18:17.329Z,3.69
2023-05-18T03:23:21.497Z,3.63
2023-05-18T03:28:25.687Z,3.51
2023-05-18T03:33:29.860Z,3.51
2023-05-18T03:38:33.978Z,3.50
2023-05-18T03:43:38.159Z,3.46
2023-05-18T03:48:42.302Z,3.44
2023-05-18T03:53:46.486Z,3.49
2023-05-18T03:58:50.620Z,3.49
2023-05-18T04:03:55.013Z,3.56
2023-05-18T04:09:01.025Z,3.68
2023-05-18T04:14:03.146Z,3.72
2023-05-18T04:19:08.333Z,3.82
2023-05-18T04:24:11.483Z,3.99
2023-05-18T04:29:15.680Z,4.15
2023-05-18T04:34:17.960Z,4.26
2023-05-18T04:39:22.072Z,4.44
2023-05-18T04:44:26.230Z,4.59
2023-05-18T04:49:30.400Z,4.70
2023-05-18T04:54:34.545Z,4.82
2023-05-18T04:59:38.708Z,4.92
2023-05-18T05:04:42.877Z,4.99
2023-05-18T05:09:47.227Z,5.11
2023-05-18T05:14:51.201Z,5.27
2023-05-18T05:19:55.378Z,5.39
2023-05-18T05:24:59.580Z,5.46
2023-05-18T05:30:03.712Z,5.58
2023-05-18T05:35:07.880Z,5.73
2023-05-18T05:40:12.092Z,5.92
2023-05-18T05:45:16.237Z,6.07
2023-05-18T05:50:20.354Z,6.21
2023-05-18T05:55:24.532Z,6.46
2023-05-18T06:00:28.718Z,6.65
2023-05-18T06:05:33.107Z,6.92
2023-05-18T06:10:37.026Z,7.20
2023-05-18T06:15:41.185Z,7.44
2023-05-18T06:20:45.376Z,7.64
2023-05-18T06:25:49.496Z,7.86
2023-05-18T06:30:53.658Z,8.01
2023-05-18T06:35:57.841Z,8.19
2023-05-18T06:41:01.995Z,8.28
2023-05-18T06:46:06.187Z,8.51
2023-05-18T06:51:10.350Z,8.67
2023-05-18T06:56:14.508Z,8.79
2023-05-18T07:01:18.676Z,9.04
2023-05-18T07:06:22.804Z,9.19
2023-05-18T07:11:29.525Z,9.34
2023-05-18T07:16:31.192Z,9.46
2023-05-18T07:21:35.307Z,9.71
2023-05-18T07:26:39.425Z,9.92
2023-05-18T07:31:43.621Z,10.13
2023-05-18T07:36:47.782Z,10.36
2023-05-18T07:41:51.923Z,10.39
2023-05-18T07:46:56.158Z,10.48
2023-05-18T07:52:00.279Z,10.64
2023-05-18T07:57:04.398Z,10.70
2023-05-18T08:02:08.597Z,10.91
2023-05-18T08:07:12.750Z,11.06
2023-05-18T08:12:16.913Z,11.16
2023-05-18T08:17:21.123Z,11.37
2023-05-18T08:22:25.289Z,11.50
2023-05-18T08:27:29.392Z,11.70
2023-05-18T08:32:33.598Z,11.82
2023-05-18T08:37:37.700Z,11.89
2023-05-18T08:42:49.919Z,12.03
2023-05-18T08:47:46.091Z,12.12
2023-05-18T08:52:50.173Z,12.54
2023-05-18T08:57:54.331Z,12.41
2023-05-18T09:03:00.610Z,12.50
2023-05-18T09:08:02.663Z,12.54
2023-05-18T09:13:06.794Z,12.74
2023-05-18T09:18:11.057Z,13.04
2023-05-18T09:23:15.147Z,13.07
2023-05-18T09:28:19.290Z,13.18
2023-05-18T09:33:23.724Z,13.31
2023-05-18T09:38:27.633Z,13.35
2023-05-18T09:43:31.750Z,13.66
2023-05-18T09:48:35.974Z,13.56
2023-05-18T09:53:40.093Z,13.86
2023-05-18T09:58:44.246Z,13.82
2023-05-18T10:03:46.592Z,13.56
2023-05-18T10:08:50.735Z,14.02
2023-05-18T10:13:54.903Z,13.93
2023-05-18T10:18:59.032Z,14.23
2023-05-18T10:24:03.185Z,14.34
2023-05-18T10:29:07.328Z,14.40
2023-05-18T10:34:11.496Z,14.49
2023-05-18T10:39:15.670Z,14.67
2023-05-18T10:44:19.816Z,14.65
2023-05-18T10:49:23.968Z,14.88
2023-05-18T10:54:28.131Z,15.24
2023-05-18T10:59:34.433Z,15.00
2023-05-18T11:04:36.485Z,14.96
2023-05-18T11:09:40.622Z,15.01
2023-05-18T11:14:44.793Z,15.36
2023-05-18T11:19:48.921Z,15.36
2023-05-18T11:24:53.066Z,15.15
2023-05-18T11:30:11.663Z,15.30
2023-05-18T11:35:01.389Z,15.46
2023-05-18T11:40:08.491Z,15.76
2023-05-18T11:45:09.818Z,15.94
2023-05-18T11:50:13.909Z,15.47
2023-05-18T11:55:18.024Z,15.38
2023-05-18T12:00:22.220Z,15.96
2023-05-18T12:05:26.373Z,16.09
2023-05-18T12:10:30.646Z,16.11
2023-05-18T12:15:34.674Z,16.09
2023-05-18T12:20:38.854Z,16.21
2023-05-18T12:25:42.974Z,16.33
2023-05-18T12:30:47.209Z,16.23
2023-05-18T12:35:51.354Z,16.55
2023-05-18T12:40:55.444Z,16.81
2023-05-18T12:45:59.627Z,16.79
2023-05-18T12:56:07.950Z,16.62
2023-05-18T13:01:12.141Z,16.84
2023-05-18T13:06:16.265Z,16.87
2023-05-18T13:11:20.414Z,16.65
2023-05-18T13:16:24.659Z,16.59
2023-05-18T13:21:28.851Z,16.99
2023-05-18T13:26:33.039Z,17.10
2023-05-18T13:31:37.105Z,17.31
2023-05-18T13:36:41.252Z,17.08
2023-05-18T13:41:45.423Z,17.05
2023-05-18T13:46:49.552Z,17.16
2023-05-18T13:51:53.683Z,17.03
2023-05-18T13:56:57.879Z,17.17
2023-05-18T14:02:02.054Z,17.39
2023-05-18T14:07:06.209Z,17.57
2023-05-18T14:12:10.352Z,17.63
2023-05-18T14:17:14.554Z,17.53
2023-05-18T14:27:22.832Z,17.78
2023-05-18T14:32:27.022Z,17.34
2023-05-18T14:37:31.128Z,17.77
2023-05-18T14:42:35.317Z,17.53
2023-05-18T14:47:39.529Z,17.47
2023-05-18T14:52:43.990Z,17.64
2023-05-18T14:57:47.869Z,17.64
2023-05-18T15:02:52.042Z,17.53
2023-05-18T15:07:56.113Z,17.86
2023-05-18T15:13:00.323Z,17.73
2023-05-18T15:18:04.528Z,17.76
2023-05-18T15:23:08.625Z,17.88
2023-05-18T15:28:12.746Z,17.74
2023-05-18T15:33:15.132Z,18.03
2023-05-18T15:38:19.133Z,18.91
2023-05-18T15:43:23.353Z,19.37
2023-05-18T15:48:27.462Z,20.59
2023-05-18T15:53:31.651Z,20.76
2023-05-18T15:58:35.794Z,21.05
2023-05-18T16:03:38.186Z,21.74
2023-05-18T16:08:42.215Z,21.48
2023-05-18T16:13:46.386Z,21.70
2023-05-18T16:18:50.596Z,22.11
2023-05-18T16:23:54.740Z,21.32
2023-05-18T16:28:58.859Z,21.79
2023-05-18T16:34:03.015Z,21.61
2023-05-18T16:39:07.171Z,22.46
2023-05-18T16:44:11.356Z,21.81
2023-05-18T16:49:15.499Z,21.67
2023-05-18T16:54:19.667Z,21.62
2023-05-18T16:59:23.819Z,19.79
2023-05-18T17:04:27.948Z,18.99
2023-05-18T17:09:32.107Z,17.89
2023-05-18T17:14:36.293Z,17.33
2023-05-18T17:19:40.459Z,16.87
2023-05-18T17:24:44.610Z,16.53
2023-05-18T17:29:48.754Z,16.25
2023-05-18T17:34:52.898Z,16.01
2023-05-18T17:39:57.080Z,15.80
2023-05-18T17:45:01.235Z,15.62
2023-05-18T17:50:05.413Z,15.37
2023-05-18T17:55:09.594Z,15.22
2023-05-18T18:00:13.753Z,15.07
2023-05-18T18:05:17.858Z,14.86
2023-05-18T18:10:22.218Z,14.76
2023-05-18T18:15:26.192Z,14.63
2023-05-18T18:20:32.560Z,14.53
2023-05-18T18:25:34.526Z,14.37
2023-05-18T18:30:38.793Z,14.35
2023-05-18T18:35:42.853Z,14.21
2023-05-18T18:40:47.013Z,14.03
2023-05-18T18:45:51.164Z,13.91
2023-05-18T18:50:55.329Z,13.76
2023-05-18T18:55:59.469Z,13.69
2023-05-18T19:01:03.674Z,13.49
2023-05-18T19:06:07.788Z,13.37
2023-05-18T19:11:11.958Z,13.35
2023-05-18T19:16:16.188Z,13.21
2023-05-18T19:21:20.331Z,13.09
2023-05-18T19:26:24.474Z,12.93
2023-05-18T19:31:28.623Z,12.89
2023-05-18T19:36:32.743Z,12.78
2023-05-18T19:41:36.924Z,12.75
2023-05-18T19:46:41.065Z,12.62
2023-05-18T19:51:45.299Z,12.48
2023-05-18T19:56:49.418Z,12.38
2023-05-18T20:01:53.604Z,12.32
2023-05-18T20:06:57.715Z,12.27
2023-05-18T20:12:01.876Z,12.25
2023-05-18T20:17:06.058Z,12.09
2023-05-18T20:22:10.188Z,12.00
2023-05-18T20:27:14.377Z,11.99
2023-05-18T20:32:18.522Z,11.88
2023-05-18T20:37:22.680Z,11.83
2023-05-18T20:42:26.860Z,11.77
2023-05-18T20:47:31.007Z,11.73
2023-05-18T20:52:35.179Z,11.58
2023-05-18T20:57:39.310Z,11.49
2023-05-18T21:02:43.552Z,11.37
2023-05-18T21:07:47.686Z,11.28
2023-05-18T21:12:51.787Z,11.20
2023-05-18T21:17:56.043Z,11.19
2023-05-18T21:23:00.236Z,11.09
2023-05-18T21:28:04.290Z,11.00
2023-05-18T21:33:06.616Z,10.88
2023-05-18T21:38:10.764Z,10.74
2023-05-18T21:43:14.932Z,10.57
2023-05-18T21:48:19.086Z,10.32
2023-05-18T21:53:23.228Z,10.18
2023-05-18T21:58:27.362Z,10.02
2023-05-18T22:03:31.512Z,9.88
2023-05-18T22:08:35.719Z,9.78
2023-05-18T22:13:39.872Z,9.60
2023-05-18T22:18:44.117Z,9.42
2023-05-18T22:23:48.168Z,9.40
2023-05-18T22:28:52.390Z,9.34
2023-05-18T22:33:56.481Z,9.18
2023-05-18T22:39:00.696Z,9.03
2023-05-18T22:44:04.864Z,8.86
2023-05-18T22:49:08.985Z,8.68
2023-05-18T22:54:13.152Z,8.52
2023-05-18T22:59:17.316Z,8.33
2023-05-18T23:04:21.487Z,8.20
2023-05-18T23:09:25.640Z,8.07
2023-05-18T23:14:29.782Z,8.07
2023-05-18T23:19:33.966Z,8.04
2023-05-18T23:24:38.115Z,7.97
2023-05-18T23:29:42.281Z,7.86
2023-05-18T23:34:46.417Z,7.88
2023-05-18T23:39:50.615Z,8.05
2023-05-18T23:44:54.757Z,8.13
2023-05-18T23:49:58.956Z,8.08
2023-05-18T23:55:03.094Z,7.91
